sensor_id;sensor_type;location;lat;lon;timestamp;temperature;humidity
73572;DHT22;61854;48.510;-2.770;2023-03-09T00:01:43;12.30;94.50
73572;DHT22;61854;48.510;-2.770;2023-03-09T00:04:13;12.20;94.50
73572;DHT22;61854;48.510;-2.770;2023-03-09T00:06:39;12.20;94.40
73572;DHT22;61854;48.510;-2.770;2023-03-09T00:09:04;12.20;94.40
73572;DHT22;61854;48.510;-2.770;2023-03-09T00:11:30;12.20;94.20
73572;DHT22;61854;48.510;-2.770;2023-03-09T00:13:56;12.20;94.00
73572;DHT22;61854;48.510;-2.770;2023-03-09T00:16:24;12.30;94.00
73572;DHT22;61854;48.510;-2.770;2023-03-09T00:18:52;12.30;94.00
73572;DHT22;61854;48.510;-2.770;2023-03-09T00:21:19;12.40;93.90
73572;DHT22;61854;48.510;-2.770;2023-03-09T00:24:08;12.40;93.70
73572;DHT22;61854;48.510;-2.770;2023-03-09T00:26:37;12.40;93.70
73572;DHT22;61854;48.510;-2.770;2023-03-09T00:29:05;12.40;93.60
73572;DHT22;61854;48.510;-2.770;2023-03-09T00:31:31;12.40;93.60
73572;DHT22;61854;48.510;-2.770;2023-03-09T00:33:57;12.40;93.70
73572;DHT22;61854;48.510;-2.770;2023-03-09T00:36:23;12.40;93.70
73572;DHT22;61854;48.510;-2.770;2023-03-09T00:38:51;12.40;93.50
73572;DHT22;61854;48.510;-2.770;2023-03-09T00:41:17;12.40;93.40
73572;DHT22;61854;48.510;-2.770;2023-03-09T00:43:43;12.40;93.60
73572;DHT22;61854;48.510;-2.770;2023-03-09T00:46:09;12.40;93.90
73572;DHT22;61854;48.510;-2.770;2023-03-09T00:48:38;12.30;94.40
73572;DHT22;61854;48.510;-2.770;2023-03-09T00:51:04;12.30;95.10
73572;DHT22;61854;48.510;-2.770;2023-03-09T00:53:30;12.30;94.80
73572;DHT22;61854;48.510;-2.770;2023-03-09T00:55:56;12.20;95.10
73572;DHT22;61854;48.510;-2.770;2023-03-09T00:58:25;12.20;95.40
73572;DHT22;61854;48.510;-2.770;2023-03-09T01:00:50;12.20;95.50
73572;DHT22;61854;48.510;-2.770;2023-03-09T01:03:16;12.10;95.70
73572;DHT22;61854;48.510;-2.770;2023-03-09T01:05:42;12.10;95.90
73572;DHT22;61854;48.510;-2.770;2023-03-09T01:08:08;12.10;95.60
73572;DHT22;61854;48.510;-2.770;2023-03-09T01:10:34;12.10;95.40
73572;DHT22;61854;48.510;-2.770;2023-03-09T01:13:02;12.10;95.50
73572;DHT22;61854;48.510;-2.770;2023-03-09T01:15:28;12.00;95.40
73572;DHT22;61854;48.510;-2.770;2023-03-09T01:17:53;12.10;95.20
73572;DHT22;61854;48.510;-2.770;2023-03-09T01:20:19;12.00;95.20
73572;DHT22;61854;48.510;-2.770;2023-03-09T01:22:44;12.00;95.10
73572;DHT22;61854;48.510;-2.770;2023-03-09T01:25:10;12.00;95.00
73572;DHT22;61854;48.510;-2.770;2023-03-09T01:27:36;12.10;94.80
73572;DHT22;61854;48.510;-2.770;2023-03-09T01:30:06;12.10;94.70
73572;DHT22;61854;48.510;-2.770;2023-03-09T01:32:32;12.00;94.80
73572;DHT22;61854;48.510;-2.770;2023-03-09T01:34:57;12.00;94.90
73572;DHT22;61854;48.510;-2.770;2023-03-09T01:37:23;11.90;95.20
73572;DHT22;61854;48.510;-2.770;2023-03-09T01:39:49;11.90;95.20
73572;DHT22;61854;48.510;-2.770;2023-03-09T01:42:15;11.90;95.30
73572;DHT22;61854;48.510;-2.770;2023-03-09T01:44:41;11.90;95.30
73572;DHT22;61854;48.510;-2.770;2023-03-09T01:47:06;11.90;95.50
73572;DHT22;61854;48.510;-2.770;2023-03-09T01:49:42;11.90;95.50
73572;DHT22;61854;48.510;-2.770;2023-03-09T01:52:36;11.90;95.50
73572;DHT22;61854;48.510;-2.770;2023-03-09T01:55:07;11.80;95.70
73572;DHT22;61854;48.510;-2.770;2023-03-09T01:57:37;11.80;95.90
73572;DHT22;61854;48.510;-2.770;2023-03-09T02:00:14;11.80;96.10
73572;DHT22;61854;48.510;-2.770;2023-03-09T02:02:44;11.90;96.20
73572;DHT22;61854;48.510;-2.770;2023-03-09T02:05:14;11.80;96.20
73572;DHT22;61854;48.510;-2.770;2023-03-09T02:07:45;11.80;96.30
73572;DHT22;61854;48.510;-2.770;2023-03-09T02:10:28;11.80;96.60
73572;DHT22;61854;48.510;-2.770;2023-03-09T02:12:58;11.80;96.70
73572;DHT22;61854;48.510;-2.770;2023-03-09T02:15:26;11.80;96.70
73572;DHT22;61854;48.510;-2.770;2023-03-09T02:17:52;11.80;96.80
73572;DHT22;61854;48.510;-2.770;2023-03-09T02:22:55;11.90;97.20
73572;DHT22;61854;48.510;-2.770;2023-03-09T02:27:54;11.90;96.50
73572;DHT22;61854;48.510;-2.770;2023-03-09T02:30:22;11.90;96.40
73572;DHT22;61854;48.510;-2.770;2023-03-09T02:32:49;11.90;96.10
73572;DHT22;61854;48.510;-2.770;2023-03-09T02:35:14;11.90;95.80
73572;DHT22;61854;48.510;-2.770;2023-03-09T02:37:41;11.90;95.60
73572;DHT22;61854;48.510;-2.770;2023-03-09T02:40:15;11.90;95.50
73572;DHT22;61854;48.510;-2.770;2023-03-09T02:42:46;11.80;95.50
73572;DHT22;61854;48.510;-2.770;2023-03-09T02:45:16;11.80;95.40
73572;DHT22;61854;48.510;-2.770;2023-03-09T02:47:51;11.90;95.50
73572;DHT22;61854;48.510;-2.770;2023-03-09T02:50:17;11.90;95.40
73572;DHT22;61854;48.510;-2.770;2023-03-09T02:52:43;11.90;95.40
73572;DHT22;61854;48.510;-2.770;2023-03-09T02:55:10;11.90;95.40
73572;DHT22;61854;48.510;-2.770;2023-03-09T02:57:35;11.90;95.30
73572;DHT22;61854;48.510;-2.770;2023-03-09T03:00:01;11.90;95.30
73572;DHT22;61854;48.510;-2.770;2023-03-09T03:02:28;11.90;95.20
73572;DHT22;61854;48.510;-2.770;2023-03-09T03:04:54;11.90;95.20
73572;DHT22;61854;48.510;-2.770;2023-03-09T03:07:20;12.00;94.70
73572;DHT22;61854;48.510;-2.770;2023-03-09T03:09:46;12.00;94.60
73572;DHT22;61854;48.510;-2.770;2023-03-09T03:12:11;12.00;94.30
73572;DHT22;61854;48.510;-2.770;2023-03-09T03:14:37;12.00;94.20
73572;DHT22;61854;48.510;-2.770;2023-03-09T03:17:02;12.10;93.90
73572;DHT22;61854;48.510;-2.770;2023-03-09T03:19:28;12.10;93.50
73572;DHT22;61854;48.510;-2.770;2023-03-09T03:21:54;12.10;93.50
73572;DHT22;61854;48.510;-2.770;2023-03-09T03:24:19;12.10;93.60
73572;DHT22;61854;48.510;-2.770;2023-03-09T03:26:45;12.10;93.60
73572;DHT22;61854;48.510;-2.770;2023-03-09T03:29:11;12.10;93.60
73572;DHT22;61854;48.510;-2.770;2023-03-09T03:31:36;12.10;93.60
73572;DHT22;61854;48.510;-2.770;2023-03-09T03:34:02;12.10;93.70
73572;DHT22;61854;48.510;-2.770;2023-03-09T03:36:28;12.10;93.80
73572;DHT22;61854;48.510;-2.770;2023-03-09T03:38:54;12.10;93.80
73572;DHT22;61854;48.510;-2.770;2023-03-09T03:41:19;12.10;93.80
73572;DHT22;61854;48.510;-2.770;2023-03-09T03:43:45;12.10;93.80
73572;DHT22;61854;48.510;-2.770;2023-03-09T03:46:11;12.00;94.00
73572;DHT22;61854;48.510;-2.770;2023-03-09T03:48:36;12.00;94.00
73572;DHT22;61854;48.510;-2.770;2023-03-09T03:51:03;12.00;94.10
73572;DHT22;61854;48.510;-2.770;2023-03-09T03:53:31;12.00;94.30
73572;DHT22;61854;48.510;-2.770;2023-03-09T03:55:56;12.00;94.30
73572;DHT22;61854;48.510;-2.770;2023-03-09T03:58:22;12.00;94.50
73572;DHT22;61854;48.510;-2.770;2023-03-09T04:00:48;12.00;94.50
73572;DHT22;61854;48.510;-2.770;2023-03-09T04:03:13;12.00;94.70
73572;DHT22;61854;48.510;-2.770;2023-03-09T04:05:39;12.10;94.60
73572;DHT22;61854;48.510;-2.770;2023-03-09T04:08:04;12.00;94.50
73572;DHT22;61854;48.510;-2.770;2023-03-09T04:10:30;12.00;94.50
73572;DHT22;61854;48.510;-2.770;2023-03-09T04:12:56;12.00;94.50
73572;DHT22;61854;48.510;-2.770;2023-03-09T04:15:22;12.00;94.20
73572;DHT22;61854;48.510;-2.770;2023-03-09T04:17:48;12.10;94.10
73572;DHT22;61854;48.510;-2.770;2023-03-09T04:20:14;12.10;93.80
73572;DHT22;61854;48.510;-2.770;2023-03-09T04:22:39;12.10;93.80
73572;DHT22;61854;48.510;-2.770;2023-03-09T04:25:07;12.00;93.70
73572;DHT22;61854;48.510;-2.770;2023-03-09T04:27:33;12.00;93.80
73572;DHT22;61854;48.510;-2.770;2023-03-09T04:29:58;11.90;93.90
73572;DHT22;61854;48.510;-2.770;2023-03-09T04:32:24;12.00;94.00
73572;DHT22;61854;48.510;-2.770;2023-03-09T04:34:49;11.90;94.00
73572;DHT22;61854;48.510;-2.770;2023-03-09T04:37:15;12.00;94.10
73572;DHT22;61854;48.510;-2.770;2023-03-09T04:39:41;11.90;94.10
73572;DHT22;61854;48.510;-2.770;2023-03-09T04:42:06;11.90;94.10
73572;DHT22;61854;48.510;-2.770;2023-03-09T04:44:32;12.00;94.20
73572;DHT22;61854;48.510;-2.770;2023-03-09T04:46:58;11.90;94.20
73572;DHT22;61854;48.510;-2.770;2023-03-09T04:49:23;11.90;94.30
73572;DHT22;61854;48.510;-2.770;2023-03-09T04:51:49;11.90;94.50
73572;DHT22;61854;48.510;-2.770;2023-03-09T04:54:15;11.80;94.70
73572;DHT22;61854;48.510;-2.770;2023-03-09T04:56:40;11.80;94.90
73572;DHT22;61854;48.510;-2.770;2023-03-09T04:59:06;11.80;95.20
73572;DHT22;61854;48.510;-2.770;2023-03-09T05:01:32;11.80;95.50
73572;DHT22;61854;48.510;-2.770;2023-03-09T05:03:58;11.80;95.70
73572;DHT22;61854;48.510;-2.770;2023-03-09T05:06:23;11.80;95.60
73572;DHT22;61854;48.510;-2.770;2023-03-09T05:08:49;11.90;95.60
73572;DHT22;61854;48.510;-2.770;2023-03-09T05:11:14;11.80;95.50
73572;DHT22;61854;48.510;-2.770;2023-03-09T05:13:40;11.80;95.50
73572;DHT22;61854;48.510;-2.770;2023-03-09T05:16:06;11.80;95.50
73572;DHT22;61854;48.510;-2.770;2023-03-09T05:18:35;11.80;95.40
73572;DHT22;61854;48.510;-2.770;2023-03-09T05:21:08;11.80;95.50
73572;DHT22;61854;48.510;-2.770;2023-03-09T05:23:35;11.70;95.60
73572;DHT22;61854;48.510;-2.770;2023-03-09T05:26:01;11.70;95.60
73572;DHT22;61854;48.510;-2.770;2023-03-09T05:28:28;11.70;95.50
73572;DHT22;61854;48.510;-2.770;2023-03-09T05:30:56;11.80;95.60
73572;DHT22;61854;48.510;-2.770;2023-03-09T05:33:21;11.70;96.00
73572;DHT22;61854;48.510;-2.770;2023-03-09T05:35:47;11.70;95.60
73572;DHT22;61854;48.510;-2.770;2023-03-09T05:38:14;11.70;95.70
73572;DHT22;61854;48.510;-2.770;2023-03-09T05:40:40;11.70;95.80
73572;DHT22;61854;48.510;-2.770;2023-03-09T05:43:06;11.70;96.10
73572;DHT22;61854;48.510;-2.770;2023-03-09T05:45:32;11.70;96.70
73572;DHT22;61854;48.510;-2.770;2023-03-09T05:47:57;11.70;96.50
73572;DHT22;61854;48.510;-2.770;2023-03-09T05:50:23;11.70;96.60
73572;DHT22;61854;48.510;-2.770;2023-03-09T05:52:48;11.70;96.70
73572;DHT22;61854;48.510;-2.770;2023-03-09T05:55:14;11.70;96.70
73572;DHT22;61854;48.510;-2.770;2023-03-09T05:57:40;11.70;96.70
73572;DHT22;61854;48.510;-2.770;2023-03-09T06:00:07;11.70;96.80
73572;DHT22;61854;48.510;-2.770;2023-03-09T06:02:35;11.80;96.60
73572;DHT22;61854;48.510;-2.770;2023-03-09T06:05:01;11.80;96.60
73572;DHT22;61854;48.510;-2.770;2023-03-09T06:07:30;11.70;96.50
73572;DHT22;61854;48.510;-2.770;2023-03-09T06:09:56;11.70;96.70
73572;DHT22;61854;48.510;-2.770;2023-03-09T06:12:22;11.60;96.90
73572;DHT22;61854;48.510;-2.770;2023-03-09T06:14:48;11.50;97.20
73572;DHT22;61854;48.510;-2.770;2023-03-09T06:17:16;11.50;97.50
73572;DHT22;61854;48.510;-2.770;2023-03-09T06:19:41;11.50;97.60
73572;DHT22;61854;48.510;-2.770;2023-03-09T06:22:07;11.50;97.60
73572;DHT22;61854;48.510;-2.770;2023-03-09T06:24:33;11.60;97.80
73572;DHT22;61854;48.510;-2.770;2023-03-09T06:26:59;11.50;98.00
73572;DHT22;61854;48.510;-2.770;2023-03-09T06:29:26;11.50;98.20
73572;DHT22;61854;48.510;-2.770;2023-03-09T06:31:52;11.50;98.50
73572;DHT22;61854;48.510;-2.770;2023-03-09T06:34:17;11.50;98.60
73572;DHT22;61854;48.510;-2.770;2023-03-09T06:36:44;11.60;98.50
73572;DHT22;61854;48.510;-2.770;2023-03-09T06:39:09;11.60;97.80
73572;DHT22;61854;48.510;-2.770;2023-03-09T06:41:36;11.60;97.40
73572;DHT22;61854;48.510;-2.770;2023-03-09T06:44:01;11.60;97.70
73572;DHT22;61854;48.510;-2.770;2023-03-09T06:46:28;11.60;97.20
73572;DHT22;61854;48.510;-2.770;2023-03-09T06:48:54;11.60;97.30
73572;DHT22;61854;48.510;-2.770;2023-03-09T06:51:20;11.60;97.20
73572;DHT22;61854;48.510;-2.770;2023-03-09T06:53:45;11.60;97.30
73572;DHT22;61854;48.510;-2.770;2023-03-09T06:56:11;11.60;97.20
73572;DHT22;61854;48.510;-2.770;2023-03-09T06:58:37;11.60;97.30
73572;DHT22;61854;48.510;-2.770;2023-03-09T07:01:11;11.60;97.20
73572;DHT22;61854;48.510;-2.770;2023-03-09T07:03:38;11.60;97.30
73572;DHT22;61854;48.510;-2.770;2023-03-09T07:06:04;11.60;97.30
73572;DHT22;61854;48.510;-2.770;2023-03-09T07:08:30;11.60;97.30
73572;DHT22;61854;48.510;-2.770;2023-03-09T07:10:56;11.60;97.40
73572;DHT22;61854;48.510;-2.770;2023-03-09T07:13:22;11.60;97.50
73572;DHT22;61854;48.510;-2.770;2023-03-09T07:15:47;11.60;97.50
73572;DHT22;61854;48.510;-2.770;2023-03-09T07:18:13;11.70;97.50
73572;DHT22;61854;48.510;-2.770;2023-03-09T07:20:40;11.80;97.50
73572;DHT22;61854;48.510;-2.770;2023-03-09T07:23:06;11.80;97.20
73572;DHT22;61854;48.510;-2.770;2023-03-09T07:25:32;11.80;97.20
73572;DHT22;61854;48.510;-2.770;2023-03-09T07:28:02;11.80;97.20
73572;DHT22;61854;48.510;-2.770;2023-03-09T07:30:29;11.90;97.20
73572;DHT22;61854;48.510;-2.770;2023-03-09T07:32:56;11.90;97.00
73572;DHT22;61854;48.510;-2.770;2023-03-09T07:35:22;12.00;97.10
73572;DHT22;61854;48.510;-2.770;2023-03-09T07:37:47;12.00;97.00
73572;DHT22;61854;48.510;-2.770;2023-03-09T07:40:13;12.20;96.80
73572;DHT22;61854;48.510;-2.770;2023-03-09T07:42:39;12.20;96.80
73572;DHT22;61854;48.510;-2.770;2023-03-09T07:45:06;12.30;96.50
73572;DHT22;61854;48.510;-2.770;2023-03-09T07:47:32;12.40;96.40
73572;DHT22;61854;48.510;-2.770;2023-03-09T07:49:59;12.40;96.30
73572;DHT22;61854;48.510;-2.770;2023-03-09T07:52:24;12.40;96.20
73572;DHT22;61854;48.510;-2.770;2023-03-09T07:55:00;12.50;96.10
73572;DHT22;61854;48.510;-2.770;2023-03-09T07:57:35;12.50;96.00
73572;DHT22;61854;48.510;-2.770;2023-03-09T08:00:01;12.60;96.00
73572;DHT22;61854;48.510;-2.770;2023-03-09T08:02:31;12.60;96.10
73572;DHT22;61854;48.510;-2.770;2023-03-09T08:04:57;12.60;96.00
73572;DHT22;61854;48.510;-2.770;2023-03-09T08:07:23;12.70;96.20
73572;DHT22;61854;48.510;-2.770;2023-03-09T08:09:48;12.70;96.40
73572;DHT22;61854;48.510;-2.770;2023-03-09T08:12:14;12.70;96.60
73572;DHT22;61854;48.510;-2.770;2023-03-09T08:14:40;12.70;96.90
73572;DHT22;61854;48.510;-2.770;2023-03-09T08:17:06;12.70;97.20
73572;DHT22;61854;48.510;-2.770;2023-03-09T08:19:31;12.60;97.40
73572;DHT22;61854;48.510;-2.770;2023-03-09T08:21:58;12.60;97.60
73572;DHT22;61854;48.510;-2.770;2023-03-09T08:24:23;12.60;97.90
73572;DHT22;61854;48.510;-2.770;2023-03-09T08:26:49;12.60;98.20
73572;DHT22;61854;48.510;-2.770;2023-03-09T08:29:15;12.60;98.40
73572;DHT22;61854;48.510;-2.770;2023-03-09T08:31:41;12.70;98.30
73572;DHT22;61854;48.510;-2.770;2023-03-09T08:34:06;12.70;98.20
73572;DHT22;61854;48.510;-2.770;2023-03-09T08:36:32;12.80;98.20
73572;DHT22;61854;48.510;-2.770;2023-03-09T08:38:58;12.90;97.80
73572;DHT22;61854;48.510;-2.770;2023-03-09T08:41:24;13.00;97.70
73572;DHT22;61854;48.510;-2.770;2023-03-09T08:43:50;13.10;97.30
73572;DHT22;61854;48.510;-2.770;2023-03-09T08:46:16;13.20;96.50
73572;DHT22;61854;48.510;-2.770;2023-03-09T08:48:42;13.30;96.10
73572;DHT22;61854;48.510;-2.770;2023-03-09T08:51:09;13.30;95.60
73572;DHT22;61854;48.510;-2.770;2023-03-09T08:53:36;13.20;95.40
73572;DHT22;61854;48.510;-2.770;2023-03-09T08:56:04;13.30;95.30
73572;DHT22;61854;48.510;-2.770;2023-03-09T08:58:30;13.30;95.10
73572;DHT22;61854;48.510;-2.770;2023-03-09T09:00:55;13.40;94.90
73572;DHT22;61854;48.510;-2.770;2023-03-09T09:03:21;13.40;94.70
73572;DHT22;61854;48.510;-2.770;2023-03-09T09:05:47;13.40;94.40
73572;DHT22;61854;48.510;-2.770;2023-03-09T09:08:12;13.40;94.50
73572;DHT22;61854;48.510;-2.770;2023-03-09T09:10:39;13.30;94.50
73572;DHT22;61854;48.510;-2.770;2023-03-09T09:13:08;13.40;94.70
73572;DHT22;61854;48.510;-2.770;2023-03-09T09:15:34;13.40;94.70
73572;DHT22;61854;48.510;-2.770;2023-03-09T09:18:03;13.40;94.50
73572;DHT22;61854;48.510;-2.770;2023-03-09T09:20:29;13.40;94.60
73572;DHT22;61854;48.510;-2.770;2023-03-09T09:22:54;13.40;94.30
73572;DHT22;61854;48.510;-2.770;2023-03-09T09:25:20;13.40;94.40
73572;DHT22;61854;48.510;-2.770;2023-03-09T09:27:49;13.40;94.60
73572;DHT22;61854;48.510;-2.770;2023-03-09T09:30:16;13.40;94.70
73572;DHT22;61854;48.510;-2.770;2023-03-09T09:32:46;13.40;94.50
73572;DHT22;61854;48.510;-2.770;2023-03-09T09:35:12;13.40;94.60
73572;DHT22;61854;48.510;-2.770;2023-03-09T09:37:39;13.40;94.70
73572;DHT22;61854;48.510;-2.770;2023-03-09T09:40:12;13.40;94.90
73572;DHT22;61854;48.510;-2.770;2023-03-09T09:42:42;13.30;95.00
73572;DHT22;61854;48.510;-2.770;2023-03-09T09:45:28;13.30;95.70
73572;DHT22;61854;48.510;-2.770;2023-03-09T09:47:55;13.10;96.60
73572;DHT22;61854;48.510;-2.770;2023-03-09T09:53:12;12.90;98.70
73572;DHT22;61854;48.510;-2.770;2023-03-09T09:55:42;12.80;99.90
73572;DHT22;61854;48.510;-2.770;2023-03-09T10:00:57;12.50;99.90
73572;DHT22;61854;48.510;-2.770;2023-03-09T10:03:36;12.50;99.90
73572;DHT22;61854;48.510;-2.770;2023-03-09T10:06:18;12.50;99.90
73572;DHT22;61854;48.510;-2.770;2023-03-09T10:09:10;12.40;99.90
73572;DHT22;61854;48.510;-2.770;2023-03-09T10:11:41;12.40;99.90
73572;DHT22;61854;48.510;-2.770;2023-03-09T10:19:49;12.20;99.90
73572;DHT22;61854;48.510;-2.770;2023-03-09T10:22:25;12.20;99.90
73572;DHT22;61854;48.510;-2.770;2023-03-09T10:24:55;12.20;99.90
73572;DHT22;61854;48.510;-2.770;2023-03-09T10:27:50;12.20;99.90
73572;DHT22;61854;48.510;-2.770;2023-03-09T10:30:32;12.30;99.90
73572;DHT22;61854;48.510;-2.770;2023-03-09T10:33:33;12.20;99.90
73572;DHT22;61854;48.510;-2.770;2023-03-09T10:36:29;12.20;99.90
73572;DHT22;61854;48.510;-2.770;2023-03-09T10:38:55;12.30;99.90
73572;DHT22;61854;48.510;-2.770;2023-03-09T10:41:22;12.20;99.90
73572;DHT22;61854;48.510;-2.770;2023-03-09T10:43:48;12.20;99.90
73572;DHT22;61854;48.510;-2.770;2023-03-09T10:48:46;12.20;99.90
73572;DHT22;61854;48.510;-2.770;2023-03-09T10:51:22;12.10;99.90
73572;DHT22;61854;48.510;-2.770;2023-03-09T10:53:49;12.20;99.90
73572;DHT22;61854;48.510;-2.770;2023-03-09T10:56:26;12.10;99.90
73572;DHT22;61854;48.510;-2.770;2023-03-09T10:59:22;12.10;99.90
73572;DHT22;61854;48.510;-2.770;2023-03-09T11:01:53;12.00;99.90
73572;DHT22;61854;48.510;-2.770;2023-03-09T11:06:56;11.70;99.90
73572;DHT22;61854;48.510;-2.770;2023-03-09T11:14:45;11.30;99.90
73572;DHT22;61854;48.510;-2.770;2023-03-09T11:28:54;11.40;99.90
73572;DHT22;61854;48.510;-2.770;2023-03-09T11:31:24;11.40;99.90
73572;DHT22;61854;48.510;-2.770;2023-03-09T11:33:52;11.40;99.90
73572;DHT22;61854;48.510;-2.770;2023-03-09T11:36:24;11.50;99.90
73572;DHT22;61854;48.510;-2.770;2023-03-09T11:38:52;11.50;99.90
73572;DHT22;61854;48.510;-2.770;2023-03-09T11:41:39;11.50;99.90
73572;DHT22;61854;48.510;-2.770;2023-03-09T11:44:15;11.50;99.90
73572;DHT22;61854;48.510;-2.770;2023-03-09T11:46:44;11.60;99.90
73572;DHT22;61854;48.510;-2.770;2023-03-09T11:49:18;11.80;99.90
73572;DHT22;61854;48.510;-2.770;2023-03-09T11:51:49;11.90;99.90
73572;DHT22;61854;48.510;-2.770;2023-03-09T11:54:30;12.00;99.90
73572;DHT22;61854;48.510;-2.770;2023-03-09T11:56:59;12.00;99.90
73572;DHT22;61854;48.510;-2.770;2023-03-09T11:59:36;12.00;99.90
73572;DHT22;61854;48.510;-2.770;2023-03-09T12:02:29;12.00;99.90
73572;DHT22;61854;48.510;-2.770;2023-03-09T12:04:58;12.00;99.90
73572;DHT22;61854;48.510;-2.770;2023-03-09T12:08:00;12.00;99.90
73572;DHT22;61854;48.510;-2.770;2023-03-09T12:10:43;12.10;99.90
73572;DHT22;61854;48.510;-2.770;2023-03-09T12:13:18;12.20;99.90
73572;DHT22;61854;48.510;-2.770;2023-03-09T12:15:58;12.30;99.90
73572;DHT22;61854;48.510;-2.770;2023-03-09T12:19:00;12.40;99.90
73572;DHT22;61854;48.510;-2.770;2023-03-09T12:21:36;12.50;99.90
73572;DHT22;61854;48.510;-2.770;2023-03-09T12:29:37;12.60;99.90
73572;DHT22;61854;48.510;-2.770;2023-03-09T12:34:47;12.70;99.90
73572;DHT22;61854;48.510;-2.770;2023-03-09T12:42:47;13.30;99.90
73572;DHT22;61854;48.510;-2.770;2023-03-09T12:48:03;13.40;99.90
73572;DHT22;61854;48.510;-2.770;2023-03-09T12:53:20;13.50;99.90
73572;DHT22;61854;48.510;-2.770;2023-03-09T12:55:56;13.70;99.90
73572;DHT22;61854;48.510;-2.770;2023-03-09T13:01:11;13.70;99.90
73572;DHT22;61854;48.510;-2.770;2023-03-09T13:04:14;13.70;99.90
73572;DHT22;61854;48.510;-2.770;2023-03-09T13:06:45;13.90;99.90
73572;DHT22;61854;48.510;-2.770;2023-03-09T13:09:38;13.90;99.90
73572;DHT22;61854;48.510;-2.770;2023-03-09T13:15:02;14.50;99.70
73572;DHT22;61854;48.510;-2.770;2023-03-09T13:20:32;14.50;95.70
73572;DHT22;61854;48.510;-2.770;2023-03-09T13:23:08;14.50;96.40
73572;DHT22;61854;48.510;-2.770;2023-03-09T13:25:52;14.60;97.20
73572;DHT22;61854;48.510;-2.770;2023-03-09T13:28:26;14.70;96.10
73572;DHT22;61854;48.510;-2.770;2023-03-09T13:30:56;14.70;95.60
73572;DHT22;61854;48.510;-2.770;2023-03-09T13:33:25;14.80;96.30
73572;DHT22;61854;48.510;-2.770;2023-03-09T13:38:33;14.80;95.20
73572;DHT22;61854;48.510;-2.770;2023-03-09T13:41:03;14.60;95.30
73572;DHT22;61854;48.510;-2.770;2023-03-09T13:43:36;14.40;95.70
73572;DHT22;61854;48.510;-2.770;2023-03-09T13:46:22;14.20;96.50
73572;DHT22;61854;48.510;-2.770;2023-03-09T13:48:54;14.20;97.60
73572;DHT22;61854;48.510;-2.770;2023-03-09T13:53:55;14.20;98.10
73572;DHT22;61854;48.510;-2.770;2023-03-09T13:56:21;14.20;97.80
73572;DHT22;61854;48.510;-2.770;2023-03-09T13:58:47;14.40;97.70
73572;DHT22;61854;48.510;-2.770;2023-03-09T14:01:25;14.40;97.60
73572;DHT22;61854;48.510;-2.770;2023-03-09T14:03:56;14.40;98.20
73572;DHT22;61854;48.510;-2.770;2023-03-09T14:06:34;14.50;96.80
73572;DHT22;61854;48.510;-2.770;2023-03-09T14:09:31;14.40;97.00
73572;DHT22;61854;48.510;-2.770;2023-03-09T14:11:58;14.30;97.70
73572;DHT22;61854;48.510;-2.770;2023-03-09T14:14:24;14.20;97.70
73572;DHT22;61854;48.510;-2.770;2023-03-09T14:16:52;14.20;98.20
73572;DHT22;61854;48.510;-2.770;2023-03-09T14:21:50;14.00;99.30
73572;DHT22;61854;48.510;-2.770;2023-03-09T14:26:43;14.00;99.90
73572;DHT22;61854;48.510;-2.770;2023-03-09T14:29:29;14.00;99.20
73572;DHT22;61854;48.510;-2.770;2023-03-09T14:32:18;14.00;99.20
73572;DHT22;61854;48.510;-2.770;2023-03-09T14:34:44;14.00;99.50
73572;DHT22;61854;48.510;-2.770;2023-03-09T14:37:24;14.10;99.00
73572;DHT22;61854;48.510;-2.770;2023-03-09T14:39:50;14.30;98.50
73572;DHT22;61854;48.510;-2.770;2023-03-09T14:42:23;14.70;97.40
73572;DHT22;61854;48.510;-2.770;2023-03-09T14:47:26;15.40;93.50
73572;DHT22;61854;48.510;-2.770;2023-03-09T14:49:53;15.30;92.90
73572;DHT22;61854;48.510;-2.770;2023-03-09T14:52:20;14.90;93.60
73572;DHT22;61854;48.510;-2.770;2023-03-09T14:54:47;14.70;94.00
73572;DHT22;61854;48.510;-2.770;2023-03-09T14:57:15;14.50;94.70
73572;DHT22;61854;48.510;-2.770;2023-03-09T14:59:42;14.40;94.50
73572;DHT22;61854;48.510;-2.770;2023-03-09T15:02:09;14.10;95.00
73572;DHT22;61854;48.510;-2.770;2023-03-09T15:04:36;14.10;94.80
73572;DHT22;61854;48.510;-2.770;2023-03-09T15:07:02;14.00;96.20
73572;DHT22;61854;48.510;-2.770;2023-03-09T15:09:33;13.90;97.10
73572;DHT22;61854;48.510;-2.770;2023-03-09T15:12:01;13.80;97.90
73572;DHT22;61854;48.510;-2.770;2023-03-09T15:14:42;13.80;97.80
73572;DHT22;61854;48.510;-2.770;2023-03-09T15:17:12;13.70;98.20
73572;DHT22;61854;48.510;-2.770;2023-03-09T15:19:38;13.80;98.70
73572;DHT22;61854;48.510;-2.770;2023-03-09T15:22:04;13.90;98.20
73572;DHT22;61854;48.510;-2.770;2023-03-09T15:24:30;14.00;97.10
73572;DHT22;61854;48.510;-2.770;2023-03-09T15:26:57;14.10;96.40
73572;DHT22;61854;48.510;-2.770;2023-03-09T15:29:24;14.10;96.30
73572;DHT22;61854;48.510;-2.770;2023-03-09T15:31:50;14.10;95.80
73572;DHT22;61854;48.510;-2.770;2023-03-09T15:34:15;14.00;95.90
73572;DHT22;61854;48.510;-2.770;2023-03-09T15:36:41;13.90;97.30
73572;DHT22;61854;48.510;-2.770;2023-03-09T15:39:07;13.70;98.60
73572;DHT22;61854;48.510;-2.770;2023-03-09T15:41:33;13.60;99.40
73572;DHT22;61854;48.510;-2.770;2023-03-09T15:43:58;13.40;99.90
73572;DHT22;61854;48.510;-2.770;2023-03-09T15:46:24;13.40;99.90
73572;DHT22;61854;48.510;-2.770;2023-03-09T15:48:53;13.30;99.90
73572;DHT22;61854;48.510;-2.770;2023-03-09T15:51:20;13.30;99.90
73572;DHT22;61854;48.510;-2.770;2023-03-09T15:53:46;13.50;99.90
73572;DHT22;61854;48.510;-2.770;2023-03-09T15:56:13;13.60;99.50
73572;DHT22;61854;48.510;-2.770;2023-03-09T15:58:39;13.60;98.90
73572;DHT22;61854;48.510;-2.770;2023-03-09T16:01:07;14.20;99.20
73572;DHT22;61854;48.510;-2.770;2023-03-09T16:03:34;14.60;94.40
73572;DHT22;61854;48.510;-2.770;2023-03-09T16:06:00;14.40;94.60
73572;DHT22;61854;48.510;-2.770;2023-03-09T16:08:26;14.60;94.60
73572;DHT22;61854;48.510;-2.770;2023-03-09T16:10:55;14.80;93.40
73572;DHT22;61854;48.510;-2.770;2023-03-09T16:13:20;14.60;93.40
73572;DHT22;61854;48.510;-2.770;2023-03-09T16:15:47;14.40;93.70
73572;DHT22;61854;48.510;-2.770;2023-03-09T16:18:13;14.20;94.00
73572;DHT22;61854;48.510;-2.770;2023-03-09T16:20:39;14.10;94.30
73572;DHT22;61854;48.510;-2.770;2023-03-09T16:23:05;14.00;95.00
73572;DHT22;61854;48.510;-2.770;2023-03-09T16:25:30;13.90;95.40
73572;DHT22;61854;48.510;-2.770;2023-03-09T16:27:56;13.80;95.60
73572;DHT22;61854;48.510;-2.770;2023-03-09T16:30:22;13.70;95.80
73572;DHT22;61854;48.510;-2.770;2023-03-09T16:32:49;13.70;96.00
73572;DHT22;61854;48.510;-2.770;2023-03-09T16:35:15;13.60;96.50
73572;DHT22;61854;48.510;-2.770;2023-03-09T16:37:41;13.50;96.90
73572;DHT22;61854;48.510;-2.770;2023-03-09T16:40:07;13.60;97.90
73572;DHT22;61854;48.510;-2.770;2023-03-09T16:42:33;13.70;97.10
73572;DHT22;61854;48.510;-2.770;2023-03-09T16:44:59;13.70;96.70